createdAt,value
2019-01-08T00:02:00.495Z,4.84
2019-01-08T00:04:29.057Z,4.90
2019-01-08T00:07:00.540Z,4.79
2019-01-08T00:09:29.447Z,4.79
2019-01-08T00:12:01.002Z,4.78
2019-01-08T00:14:29.600Z,4.78
2019-01-08T00:16:58.153Z,4.79
2019-01-08T00:19:26.713Z,4.84
2019-01-08T00:21:55.269Z,4.84
2019-01-08T00:24:26.599Z,4.82
2019-01-08T00:26:58.170Z,4.76
2019-01-08T00:29:26.719Z,4.81
2019-01-08T00:31:55.279Z,4.80
2019-01-08T00:34:23.837Z,4.80
2019-01-08T00:36:58.236Z,4.90
2019-01-08T00:39:26.794Z,4.83
2019-01-08T00:41:55.346Z,4.87
2019-01-08T00:44:23.947Z,4.87
2019-01-08T00:46:52.843Z,4.87
2019-01-08T00:49:29.135Z,4.84
2019-01-08T00:52:11.118Z,4.83
2019-01-08T00:54:41.919Z,4.79
2019-01-08T00:57:10.474Z,4.83
2019-01-08T00:59:39.034Z,4.84
2019-01-08T01:02:07.588Z,4.83
2019-01-08T01:04:39.120Z,4.97
2019-01-08T01:07:08.030Z,4.97
2019-01-08T01:09:36.597Z,4.96
2019-01-08T01:12:05.159Z,4.95
2019-01-08T01:14:33.706Z,4.94
2019-01-08T01:17:05.013Z,4.95
2019-01-08T01:19:33.571Z,4.89
2019-01-08T01:22:04.815Z,4.76
2019-01-08T01:24:33.411Z,4.87
2019-01-08T01:27:01.967Z,4.86
2019-01-08T01:29:30.853Z,4.86
2019-01-08T01:32:02.274Z,4.93
2019-01-08T01:34:30.909Z,4.96
2019-01-08T01:36:59.460Z,4.98
2019-01-08T01:39:28.047Z,4.98
2019-01-08T01:41:59.874Z,4.98
2019-01-08T01:44:28.424Z,4.98
2019-01-08T01:46:59.976Z,4.98
2019-01-08T01:49:28.529Z,5.02
2019-01-08T01:51:57.084Z,5.02
2019-01-08T01:54:28.368Z,4.95
2019-01-08T01:56:59.872Z,4.99
2019-01-08T01:59:31.202Z,5.09
2019-01-08T02:02:02.978Z,5.07
2019-01-08T02:04:31.525Z,5.05
2019-01-08T02:07:02.866Z,5.05
2019-01-08T02:09:34.442Z,5.00
2019-01-08T02:12:02.993Z,5.00
2019-01-08T02:14:31.560Z,5.12
2019-01-08T02:17:00.161Z,5.07
2019-01-08T02:19:31.756Z,5.13
2019-01-08T02:22:00.391Z,5.13
2019-01-08T02:24:29.047Z,5.03
2019-01-08T02:27:00.652Z,5.06
2019-01-08T02:29:31.887Z,5.15
2019-01-08T02:32:00.452Z,5.00
2019-01-08T02:34:29.050Z,5.15
2019-01-08T02:36:57.586Z,5.15
2019-01-08T02:39:29.146Z,5.17
2019-01-08T02:41:58.183Z,5.17
2019-01-08T02:44:26.881Z,5.17
2019-01-08T02:46:55.419Z,5.15
2019-01-08T02:49:23.965Z,5.23
2019-01-08T02:51:52.522Z,5.23
2019-01-08T02:54:24.245Z,5.11
2019-01-08T02:56:52.873Z,5.11
2019-01-08T02:59:25.166Z,5.18
2019-01-08T03:01:53.999Z,5.15
2019-01-08T03:04:22.555Z,5.19
2019-01-08T03:06:54.615Z,5.19
2019-01-08T03:09:23.177Z,5.29
2019-01-08T03:11:51.737Z,5.25
2019-01-08T03:14:22.031Z,5.20
2019-01-08T03:16:50.851Z,5.20
2019-01-08T03:19:19.410Z,5.26
2019-01-08T03:21:47.965Z,5.26
2019-01-08T03:24:16.563Z,5.26
2019-01-08T03:26:48.131Z,5.24
2019-01-08T03:29:16.682Z,5.14
2019-01-08T03:31:45.279Z,5.24
2019-01-08T03:34:17.170Z,5.23
2019-01-08T03:36:45.807Z,5.24
2019-01-08T03:39:14.376Z,5.34
2019-01-08T03:41:42.910Z,5.40
2019-01-08T03:44:11.614Z,5.32
2019-01-08T03:46:40.249Z,5.32
2019-01-08T03:49:08.815Z,5.30
2019-01-08T03:51:37.360Z,5.34
2019-01-08T03:54:05.924Z,5.28
2019-01-08T03:56:34.480Z,5.27
2019-01-08T03:59:03.047Z,5.31
2019-01-08T04:01:31.596Z,5.31
2019-01-08T04:04:00.320Z,5.26
2019-01-08T04:06:28.887Z,5.26
2019-01-08T04:08:57.448Z,5.21
2019-01-08T04:11:26.000Z,5.25
2019-01-08T04:13:54.886Z,5.19
2019-01-08T04:16:26.374Z,5.23
2019-01-08T04:18:54.935Z,5.21
2019-01-08T04:21:23.488Z,5.21
2019-01-08T04:23:56.368Z,5.18
2019-01-08T04:26:27.838Z,5.02
2019-01-08T04:28:56.412Z,4.95
2019-01-08T04:31:28.179Z,4.99
2019-01-08T04:33:56.749Z,4.83
2019-01-08T04:36:25.702Z,4.83
2019-01-08T04:38:57.438Z,4.84
2019-01-08T04:41:28.966Z,4.83
2019-01-08T04:44:00.628Z,4.85
2019-01-08T04:46:32.266Z,4.86
2019-01-08T04:49:03.859Z,4.96
2019-01-08T04:51:32.424Z,5.03
2019-01-08T04:54:00.972Z,4.98
2019-01-08T04:56:29.733Z,5.07
2019-01-08T04:59:01.069Z,5.07
2019-01-08T05:01:32.949Z,5.03
2019-01-08T05:04:04.992Z,5.00
2019-01-08T05:06:36.571Z,5.02
2019-01-08T05:09:06.265Z,4.94
2019-01-08T05:11:37.796Z,4.88
2019-01-08T05:14:06.369Z,4.75
2019-01-08T05:16:34.911Z,4.67
2019-01-08T05:19:03.877Z,4.67
2019-01-08T05:21:32.431Z,4.54
2019-01-08T05:24:03.830Z,4.45
2019-01-08T05:26:32.611Z,4.46
2019-01-08T05:29:01.165Z,4.47
2019-01-08T05:31:29.721Z,4.36
2019-01-08T05:34:01.132Z,4.36
2019-01-08T05:36:29.690Z,4.34
2019-01-08T05:39:00.986Z,4.38
2019-01-08T05:41:29.530Z,4.25
2019-01-08T05:43:58.122Z,4.36
2019-01-08T05:46:26.676Z,4.36
2019-01-08T05:48:55.278Z,4.46
2019-01-08T05:51:23.979Z,4.46
2019-01-08T05:53:52.846Z,4.46
2019-01-08T05:56:24.432Z,4.46
2019-01-08T05:58:55.900Z,4.52
2019-01-08T06:01:27.219Z,4.55
2019-01-08T06:03:58.767Z,4.55
2019-01-08T06:06:30.077Z,4.50
2019-01-08T06:09:01.570Z,4.51
2019-01-08T06:11:30.975Z,4.56
2019-01-08T06:13:59.525Z,4.58
2019-01-08T06:16:31.086Z,4.61
2019-01-08T06:18:59.801Z,4.64
2019-01-08T06:21:31.433Z,4.63
2019-01-08T06:23:59.984Z,4.63
2019-01-08T06:26:28.535Z,4.68
2019-01-08T06:28:57.452Z,4.68
2019-01-08T06:31:26.420Z,4.86
2019-01-08T06:33:55.083Z,4.86
2019-01-08T06:36:23.629Z,4.93
2019-01-08T06:38:54.877Z,4.92
2019-01-08T06:41:23.804Z,4.92
2019-01-08T06:43:54.007Z,4.98
2019-01-08T06:46:22.972Z,4.95
2019-01-08T06:48:54.528Z,4.95
2019-01-08T06:51:23.088Z,5.02
2019-01-08T06:53:57.841Z,5.03
2019-01-08T06:56:29.071Z,5.07
2019-01-08T06:59:00.377Z,5.08
2019-01-08T07:01:31.832Z,5.08
2019-01-08T07:04:03.326Z,5.10
2019-01-08T07:06:34.798Z,5.10
2019-01-08T07:09:07.027Z,5.19
2019-01-08T07:11:38.725Z,5.24
2019-01-08T07:14:07.286Z,5.28
2019-01-08T07:16:38.668Z,5.24
2019-01-08T07:19:10.191Z,5.25
2019-01-08T07:21:38.739Z,5.33
2019-01-08T07:24:07.326Z,5.42
2019-01-08T07:26:38.857Z,5.40
2019-01-08T07:29:10.455Z,5.40
2019-01-08T07:31:39.130Z,5.41
2019-01-08T07:34:10.525Z,5.42
2019-01-08T07:36:39.083Z,5.46
2019-01-08T07:39:10.570Z,5.46
2019-01-08T07:41:42.160Z,5.38
2019-01-08T07:44:10.854Z,5.34
2019-01-08T07:46:42.171Z,5.34
2019-01-08T07:49:13.913Z,5.34
2019-01-08T07:51:42.465Z,5.29
2019-01-08T07:54:14.072Z,5.32
2019-01-08T07:56:42.682Z,5.37
2019-01-08T07:59:14.095Z,5.38
2019-01-08T08:01:43.057Z,5.30
2019-01-08T08:04:12.123Z,5.30
2019-01-08T08:06:40.669Z,5.25
2019-01-08T08:09:12.232Z,5.25
2019-01-08T08:11:40.779Z,5.23
2019-01-08T08:14:12.134Z,5.27
2019-01-08T08:16:43.476Z,5.34
2019-01-08T08:19:12.028Z,5.34
2019-01-08T08:21:43.506Z,5.47
2019-01-08T08:24:15.057Z,5.50
2019-01-08T08:26:46.602Z,5.63
2019-01-08T08:29:15.535Z,5.64
2019-01-08T08:31:44.085Z,5.62
2019-01-08T08:34:15.670Z,5.40
2019-01-08T08:36:47.159Z,5.40
2019-01-08T08:39:16.073Z,5.47
2019-01-08T08:41:45.005Z,5.44
2019-01-08T08:44:16.248Z,5.43
2019-01-08T08:46:44.821Z,5.29
2019-01-08T08:49:13.378Z,5.29
2019-01-08T08:51:41.927Z,5.30
2019-01-08T08:54:10.515Z,5.29
2019-01-08T08:56:39.068Z,5.25
2019-01-08T08:59:10.443Z,5.33
2019-01-08T09:01:38.997Z,5.33
2019-01-08T09:04:07.552Z,5.23
2019-01-08T09:06:38.881Z,5.24
2019-01-08T09:09:07.452Z,5.27
2019-01-08T09:11:38.966Z,5.27
2019-01-08T09:14:07.500Z,5.35
2019-01-08T09:16:39.374Z,5.35
2019-01-08T09:19:10.916Z,5.35
2019-01-08T09:21:39.459Z,5.40
2019-01-08T09:24:08.010Z,5.34
2019-01-08T09:26:39.864Z,5.34
2019-01-08T09:29:08.408Z,5.31
2019-01-08T09:31:37.037Z,5.33
2019-01-08T09:34:05.650Z,5.42
2019-01-08T09:36:34.237Z,5.42
2019-01-08T09:39:02.820Z,5.45
2019-01-08T09:41:31.397Z,5.45
2019-01-08T09:44:00.012Z,5.56
2019-01-08T09:46:31.532Z,5.78
2019-01-08T09:49:00.114Z,6.00
2019-01-08T09:51:32.070Z,6.13
2019-01-08T09:54:00.680Z,6.00
2019-01-08T09:56:29.228Z,5.92
2019-01-08T09:58:57.855Z,5.92
2019-01-08T10:01:29.913Z,5.62
2019-01-08T10:03:58.442Z,5.62
2019-01-08T10:06:32.941Z,5.62
2019-01-08T10:09:01.557Z,5.59
2019-01-08T10:11:30.186Z,5.65
2019-01-08T10:14:01.741Z,5.65
2019-01-08T10:16:30.293Z,5.51
2019-01-08T10:18:58.882Z,5.37
2019-01-08T10:21:27.822Z,5.37
2019-01-08T10:23:56.437Z,5.29
2019-01-08T10:26:25.048Z,5.21
2019-01-08T10:28:53.665Z,5.18
2019-01-08T10:31:32.360Z,5.18
2019-01-08T10:33:55.969Z,5.19
2019-01-08T10:36:27.500Z,5.12
2019-01-08T10:38:56.134Z,5.17
2019-01-08T10:41:25.000Z,5.17
2019-01-08T10:43:54.086Z,5.19
2019-01-08T10:46:22.647Z,5.18
2019-01-08T10:48:53.266Z,5.18
2019-01-08T10:51:21.920Z,5.20
2019-01-08T10:53:50.526Z,5.23
2019-01-08T10:56:19.232Z,5.21
2019-01-08T10:58:47.855Z,5.23
2019-01-08T11:01:16.406Z,5.17
2019-01-08T11:03:45.334Z,5.20
2019-01-08T11:06:13.926Z,5.18
2019-01-08T11:08:45.203Z,5.18
2019-01-08T11:11:16.606Z,5.26
2019-01-08T11:13:47.931Z,5.26
2019-01-08T11:16:16.490Z,5.20
2019-01-08T11:18:48.197Z,5.20
2019-01-08T11:21:16.749Z,5.27
2019-01-08T11:23:45.350Z,5.27
2019-01-08T11:26:13.914Z,5.31
2019-01-08T11:28:43.249Z,5.36
2019-01-08T11:31:14.913Z,5.36
2019-01-08T11:33:43.504Z,5.33
2019-01-08T11:36:12.171Z,5.29
2019-01-08T11:38:40.716Z,5.24
2019-01-08T11:41:12.474Z,5.29
2019-01-08T11:43:41.349Z,5.29
2019-01-08T11:46:12.568Z,5.35
2019-01-08T11:48:41.205Z,5.27
2019-01-08T11:51:12.571Z,5.35
2019-01-08T11:53:41.180Z,5.29
2019-01-08T11:56:09.722Z,5.34
2019-01-08T11:58:38.286Z,5.34
2019-01-08T12:01:06.835Z,5.30
2019-01-08T12:03:35.378Z,5.30
2019-01-08T12:06:03.921Z,5.28
2019-01-08T12:08:32.471Z,5.28
2019-01-08T12:11:01.020Z,5.32
2019-01-08T12:13:29.582Z,5.31
2019-01-08T12:15:58.132Z,5.28
2019-01-08T12:18:27.093Z,5.28
2019-01-08T12:20:55.647Z,5.27
2019-01-08T12:23:27.262Z,5.43
2019-01-08T12:25:58.748Z,5.36
2019-01-08T12:28:27.703Z,5.36
2019-01-08T12:30:56.242Z,5.34
2019-01-08T12:33:24.784Z,5.34
2019-01-08T12:35:56.067Z,5.38
2019-01-08T12:38:28.026Z,5.35
2019-01-08T12:40:56.579Z,5.41
2019-01-08T12:43:28.145Z,5.41
2019-01-08T12:45:59.387Z,5.41
2019-01-08T12:48:30.745Z,5.37
2019-01-08T12:51:01.845Z,5.44
2019-01-08T12:53:30.394Z,5.56
2019-01-08T12:55:58.949Z,5.52
2019-01-08T12:58:27.494Z,5.54
2019-01-08T13:00:56.095Z,5.48
2019-01-08T13:03:24.636Z,5.48
2019-01-08T13:05:53.181Z,5.47
2019-01-08T13:08:21.798Z,5.42
2019-01-08T13:10:53.330Z,5.44
2019-01-08T13:13:22.218Z,5.53
2019-01-08T13:15:54.501Z,5.53
2019-01-08T13:18:25.979Z,5.57
2019-01-08T13:20:54.535Z,5.49
2019-01-08T13:23:23.238Z,5.49
2019-01-08T13:25:51.798Z,5.49
2019-01-08T13:28:23.492Z,5.54
2019-01-08T13:30:53.743Z,5.53
2019-01-08T13:33:25.177Z,5.52
2019-01-08T13:35:56.466Z,5.50
2019-01-08T13:38:27.996Z,5.59
2019-01-08T13:40:59.390Z,5.56
2019-01-08T13:43:30.703Z,5.62
2019-01-08T13:45:59.256Z,5.62
2019-01-08T13:48:27.814Z,5.64
2019-01-08T13:50:56.376Z,5.63
2019-01-08T13:53:24.915Z,5.63
2019-01-08T13:55:56.416Z,5.68
2019-01-08T13:58:27.663Z,5.67
2019-01-08T14:00:58.991Z,5.74
2019-01-08T14:03:27.689Z,5.73
2019-01-08T14:05:59.147Z,5.66
2019-01-08T14:08:30.724Z,5.66
2019-01-08T14:10:59.268Z,5.64
2019-01-08T14:13:27.804Z,5.60
2019-01-08T14:15:59.037Z,5.57
2019-01-08T14:18:30.660Z,5.59
2019-01-08T14:20:59.197Z,5.59
2019-01-08T14:23:27.738Z,5.53
2019-01-08T14:25:58.993Z,5.53
2019-01-08T14:28:27.965Z,5.47
2019-01-08T14:30:59.674Z,5.45
2019-01-08T14:33:28.219Z,5.45
2019-01-08T14:35:56.765Z,5.40
2019-01-08T14:38:25.352Z,5.42
2019-01-08T14:40:56.829Z,5.36
2019-01-08T14:43:28.520Z,5.37
2019-01-08T14:45:59.748Z,5.34
2019-01-08T14:48:31.292Z,5.34
2019-01-08T14:51:02.951Z,5.34
2019-01-08T14:53:31.523Z,5.38
2019-01-08T14:56:03.080Z,5.41
2019-01-08T14:58:34.615Z,5.40
2019-01-08T15:01:06.003Z,5.43
2019-01-08T15:03:37.578Z,5.43
2019-01-08T15:06:09.202Z,5.35
2019-01-08T15:08:37.754Z,5.40
2019-01-08T15:11:09.234Z,5.42
2019-01-08T15:13:37.797Z,5.44
2019-01-08T15:16:09.786Z,5.45
2019-01-08T15:18:41.109Z,5.44
2019-01-08T15:21:12.725Z,5.44
2019-01-08T15:23:44.311Z,5.43
2019-01-08T15:26:15.881Z,5.43
2019-01-08T15:28:44.472Z,5.37
2019-01-08T15:31:16.857Z,5.29
2019-01-08T15:33:45.485Z,5.29
2019-01-08T15:36:16.834Z,5.25
2019-01-08T15:38:45.555Z,5.25
2019-01-08T15:41:14.094Z,5.25
2019-01-08T15:43:45.616Z,5.21
2019-01-08T15:46:14.172Z,5.22
2019-01-08T15:48:42.712Z,5.22
2019-01-08T15:51:11.338Z,5.24
2019-01-08T15:53:41.406Z,5.20
2019-01-08T15:56:10.129Z,5.18
2019-01-08T15:58:39.052Z,5.18
2019-01-08T16:01:07.693Z,5.04
2019-01-08T16:03:36.402Z,5.05
2019-01-08T16:06:05.129Z,5.00
2019-01-08T16:08:33.722Z,5.00
2019-01-08T16:11:02.278Z,4.96
2019-01-08T16:13:30.850Z,4.84
2019-01-08T16:15:59.397Z,4.84
2019-01-08T16:18:30.833Z,4.89
2019-01-08T16:20:59.362Z,4.72
2019-01-08T16:23:29.598Z,4.72
2019-01-08T16:26:01.297Z,4.80
2019-01-08T16:28:32.788Z,4.84
2019-01-08T16:31:04.119Z,4.82
2019-01-08T16:33:32.711Z,4.82
2019-01-08T16:36:04.291Z,4.94
2019-01-08T16:38:35.942Z,4.92
2019-01-08T16:41:07.155Z,4.95
2019-01-08T16:43:38.432Z,5.01
2019-01-08T16:46:09.727Z,5.02
2019-01-08T16:48:40.999Z,5.01
2019-01-08T16:51:12.629Z,5.01
2019-01-08T16:53:41.716Z,4.84
2019-01-08T16:56:10.315Z,4.92
2019-01-08T16:58:41.570Z,4.81
2019-01-08T17:01:10.131Z,4.66
2019-01-08T17:03:41.829Z,4.68
2019-01-08T17:06:10.396Z,4.49
2019-01-08T17:08:42.224Z,4.49
2019-01-08T17:11:10.783Z,4.41
2019-01-08T17:13:39.745Z,4.31
2019-01-08T17:16:11.503Z,4.32
2019-01-08T17:18:42.826Z,4.10
2019-01-08T17:21:11.382Z,4.10
2019-01-08T17:23:42.683Z,3.55
2019-01-08T17:26:14.225Z,3.13
2019-01-08T17:28:45.445Z,3.05
2019-01-08T17:31:14.005Z,2.86
2019-01-08T17:33:42.594Z,2.86
2019-01-08T17:36:11.139Z,2.91
2019-01-08T17:38:42.592Z,2.87
2019-01-08T17:41:14.080Z,2.89
2019-01-08T17:43:45.344Z,2.92
2019-01-08T17:46:13.897Z,2.93
2019-01-08T17:48:45.196Z,2.96
2019-01-08T17:51:16.572Z,3.04
2019-01-08T17:53:45.104Z,2.97
2019-01-08T17:56:13.758Z,2.94
2019-01-08T17:58:45.845Z,2.95
2019-01-08T18:01:21.084Z,2.95
2019-01-08T18:03:51.995Z,2.99
2019-01-08T18:06:20.580Z,2.96
2019-01-08T18:08:51.024Z,2.95
2019-01-08T18:11:25.395Z,2.99
2019-01-08T18:13:54.300Z,2.92
2019-01-08T18:16:25.694Z,2.94
2019-01-08T18:18:54.284Z,2.92
2019-01-08T18:21:22.830Z,2.92
2019-01-08T18:23:52.935Z,2.95
2019-01-08T18:26:27.337Z,2.96
2019-01-08T18:28:56.222Z,2.95
2019-01-08T18:31:24.761Z,2.99
2019-01-08T18:33:53.318Z,3.08
2019-01-08T18:36:21.856Z,3.10
2019-01-08T18:38:50.761Z,3.11
2019-01-08T18:41:19.394Z,3.04
2019-01-08T18:43:48.350Z,3.09
2019-01-08T18:46:16.900Z,3.07
2019-01-08T18:48:45.449Z,3.11
2019-01-08T18:51:14.066Z,3.07
2019-01-08T18:53:42.625Z,3.07
2019-01-08T18:56:11.212Z,3.00
2019-01-08T18:58:40.489Z,3.01
2019-01-08T19:01:10.253Z,3.01
2019-01-08T19:03:39.556Z,2.97
2019-01-08T19:06:10.936Z,3.01
2019-01-08T19:09:18.492Z,2.95
2019-01-08T19:11:48.103Z,2.94
2019-01-08T19:14:18.765Z,2.88
2019-01-08T19:16:51.478Z,2.92
2019-01-08T19:19:21.742Z,2.94
2019-01-08T19:21:54.450Z,2.78
2019-01-08T19:24:29.413Z,2.82
2019-01-08T19:26:58.854Z,2.74
2019-01-08T19:29:28.702Z,2.86
2019-01-08T19:32:01.177Z,2.68
2019-01-08T19:34:32.917Z,2.62
2019-01-08T19:37:01.631Z,2.60
2019-01-08T19:39:30.269Z,2.62
2019-01-08T19:42:01.555Z,2.60
2019-01-08T19:44:33.063Z,2.63
2019-01-08T19:47:01.722Z,2.58
2019-01-08T19:49:30.279Z,2.57
2019-01-08T19:51:58.828Z,2.58
2019-01-08T19:54:27.382Z,2.61
2019-01-08T19:56:58.941Z,2.58
2019-01-08T19:59:30.318Z,2.53
2019-01-08T20:01:58.942Z,2.58
2019-01-08T20:04:30.221Z,2.55
2019-01-08T20:06:58.827Z,2.61
2019-01-08T20:09:28.056Z,2.68
2019-01-08T20:11:56.820Z,2.68
2019-01-08T20:14:28.439Z,2.61
2019-01-08T20:16:59.124Z,2.68
2019-01-08T20:19:27.278Z,2.67
2019-01-08T20:21:56.882Z,2.60
2019-01-08T20:24:29.560Z,2.65
2019-01-08T20:27:04.017Z,2.66
2019-01-08T20:29:34.260Z,2.69
2019-01-08T20:32:07.559Z,2.77
2019-01-08T20:34:46.010Z,2.79
2019-01-08T20:37:19.018Z,2.80
2019-01-08T20:39:49.908Z,2.60
2019-01-08T20:42:21.360Z,2.64
2019-01-08T20:44:51.607Z,2.66
2019-01-08T20:47:22.569Z,2.68
2019-01-08T20:49:54.076Z,2.67
2019-01-08T20:52:24.259Z,2.67
2019-01-08T20:54:54.292Z,2.72
2019-01-08T20:57:24.942Z,2.66
2019-01-08T20:59:55.061Z,2.65
2019-01-08T21:02:25.497Z,2.64
2019-01-08T21:04:55.859Z,2.71
2019-01-08T21:07:24.416Z,2.66
2019-01-08T21:09:56.484Z,2.66
2019-01-08T21:12:25.336Z,2.69
2019-01-08T21:14:54.281Z,2.57
2019-01-08T21:17:34.117Z,2.59
2019-01-08T21:23:18.500Z,2.47
2019-01-08T21:26:17.309Z,2.51
2019-01-08T21:28:33.363Z,2.56
2019-01-08T21:31:02.034Z,2.56
2019-01-08T21:33:34.131Z,2.48
2019-01-08T21:36:22.825Z,2.50
2019-01-08T21:38:57.332Z,2.46
2019-01-08T21:42:49.499Z,2.54
2019-01-08T21:44:46.329Z,2.49
2019-01-08T21:50:25.294Z,2.46
2019-01-08T21:53:07.305Z,2.50
2019-01-08T21:55:39.385Z,2.44
2019-01-08T21:58:07.977Z,2.47
2019-01-08T22:00:38.763Z,2.45
2019-01-08T22:03:10.797Z,2.44
2019-01-08T22:05:39.994Z,2.44
2019-01-08T22:08:08.630Z,2.45
2019-01-08T22:17:06.872Z,2.49
2019-01-08T22:19:55.115Z,2.49
2019-01-08T22:22:34.953Z,2.56
2019-01-08T22:25:09.167Z,2.54
2019-01-08T22:28:01.565Z,2.44
2019-01-08T22:30:53.859Z,2.43
2019-01-08T22:33:23.153Z,2.49
2019-01-08T22:35:52.971Z,2.45
2019-01-08T22:38:26.513Z,2.45
2019-01-08T22:40:59.732Z,2.52
2019-01-08T22:43:31.063Z,2.49
2019-01-08T22:46:02.315Z,2.39
2019-01-08T22:48:30.877Z,2.38
2019-01-08T22:50:59.419Z,2.38
2019-01-08T22:53:44.641Z,2.37
2019-01-08T22:56:34.318Z,2.36
2019-01-08T22:59:03.303Z,2.42
2019-01-08T23:01:36.932Z,2.42
2019-01-08T23:04:06.571Z,2.43
2019-01-08T23:06:35.192Z,2.26
2019-01-08T23:09:05.362Z,2.25
2019-01-08T23:11:34.351Z,2.17
2019-01-08T23:14:03.358Z,2.16
2019-01-08T23:16:34.569Z,2.17
2019-01-08T23:19:03.277Z,2.21
2019-01-08T23:21:31.890Z,2.20
2019-01-08T23:24:00.503Z,2.17
2019-01-08T23:26:29.421Z,2.16
2019-01-08T23:29:00.685Z,2.10
2019-01-08T23:31:29.227Z,2.15
2019-01-08T23:33:57.776Z,2.13
2019-01-08T23:36:26.321Z,2.03
2019-01-08T23:38:55.313Z,2.10
2019-01-08T23:41:23.853Z,2.07
2019-01-08T23:43:52.444Z,2.11
2019-01-08T23:46:22.529Z,2.02
2019-01-08T23:48:53.770Z,2.12
2019-01-08T23:51:22.304Z,2.13
2019-01-08T23:53:52.435Z,2.13
2019-01-08T23:56:22.902Z,2.14
2019-01-08T23:58:51.444Z,2.15
